Sign in

Advertising

Info

Aviation weather - KDAB

METAR KDAB 301830Z 12008KT 3SM FEW013 BKN018 BKN035 28/24 A2993 RMK AO2 SFC VIS 10 T02780239

TAF KDAB 301728Z 3018/3118 11008KT 5SM SHRA BKN025 OVC100 FM302100 13008KT P6SM VCSH SCT025 BKN050 FM310100 17006KT P6SM VCSH FEW020 BKN050 PROB30 3106/3110 4SM -SHRA OVC025 FM311200 19007KT P6SM VCSH OVC050

Aviation weather from ADDS. Re-check weather before flight.

-